sensor_id;sensor_type;location;lat;lon;timestamp;pressure;altitude;pressure_sealevel;temperature;humidity
60719;BME280;46567;51.660;5.824;2022-10-12T00:18:07;102490.0;;;6.7;75.5
60719;BME280;46567;51.660;5.824;2022-10-12T00:28:32;102480.0;;;6.8;75.5
60719;BME280;46567;51.660;5.824;2022-10-12T00:38:07;102470.0;;;6.8;75.5
60719;BME280;46567;51.660;5.824;2022-10-12T00:48:07;102480.0;;;6.8;75.5
60719;BME280;46567;51.660;5.824;2022-10-12T00:58:33;102480.0;;;6.8;75.5
60719;BME280;46567;51.660;5.824;2022-10-12T01:08:07;102480.0;;;6.7;75.5
60719;BME280;46567;51.660;5.824;2022-10-12T01:18:18;102470.0;;;6.6;75.5
60719;BME280;46567;51.660;5.824;2022-10-12T01:48:07;102440.0;;;6.7;76.0
60719;BME280;46567;51.660;5.824;2022-10-12T01:58:53;102430.0;;;6.8;76.0
60719;BME280;46567;51.660;5.824;2022-10-12T02:08:16;102420.0;;;6.8;76.0
60719;BME280;46567;51.660;5.824;2022-10-12T02:18:09;102410.0;;;6.8;76.5
60719;BME280;46567;51.660;5.824;2022-10-12T02:28:36;102420.0;;;6.8;77.0
60719;BME280;46567;51.660;5.824;2022-10-12T02:38:11;102410.0;;;6.7;77.0
60719;BME280;46567;51.660;5.824;2022-10-12T02:48:32;102400.0;;;6.7;77.0
60719;BME280;46567;51.660;5.824;2022-10-12T02:58:07;102400.0;;;6.5;77.0
60719;BME280;46567;51.660;5.824;2022-10-12T03:08:07;102400.0;;;6.4;77.0
60719;BME280;46567;51.660;5.824;2022-10-12T03:18:07;102400.0;;;6.4;77.0
60719;BME280;46567;51.660;5.824;2022-10-12T03:28:07;102390.0;;;6.3;77.0
60719;BME280;46567;51.660;5.824;2022-10-12T03:38:07;102390.0;;;6.2;77.0
60719;BME280;46567;51.660;5.824;2022-10-12T03:48:31;102380.0;;;6.1;77.5
60719;BME280;46567;51.660;5.824;2022-10-12T03:58:07;102380.0;;;6.1;77.5
60719;BME280;46567;51.660;5.824;2022-10-12T04:08:32;102380.0;;;6.0;77.5
60719;BME280;46567;51.660;5.824;2022-10-12T04:18:32;102370.0;;;5.9;77.5
60719;BME280;46567;51.660;5.824;2022-10-12T04:28:32;102370.0;;;5.8;77.5
60719;BME280;46567;51.660;5.824;2022-10-12T04:38:07;102360.0;;;5.7;77.5
60719;BME280;46567;51.660;5.824;2022-10-12T04:48:31;102370.0;;;5.5;77.5
60719;BME280;46567;51.660;5.824;2022-10-12T04:58:07;102380.0;;;5.4;77.5
60719;BME280;46567;51.660;5.824;2022-10-12T05:08:31;102370.0;;;5.3;77.5
60719;BME280;46567;51.660;5.824;2022-10-12T05:18:07;102370.0;;;5.3;77.5
60719;BME280;46567;51.660;5.824;2022-10-12T05:28:07;102360.0;;;5.2;77.5
60719;BME280;46567;51.660;5.824;2022-10-12T05:48:07;102360.0;;;5.1;78.0
60719;BME280;46567;51.660;5.824;2022-10-12T06:18:07;102350.0;;;5.2;78.5
60719;BME280;46567;51.660;5.824;2022-10-12T06:38:07;102340.0;;;5.7;79.0
60719;BME280;46567;51.660;5.824;2022-10-12T06:48:07;102350.0;;;6.3;79.0
60719;BME280;46567;51.660;5.824;2022-10-12T06:58:07;102350.0;;;6.5;79.0
60719;BME280;46567;51.660;5.824;2022-10-12T07:08:07;102350.0;;;6.7;79.5
60719;BME280;46567;51.660;5.824;2022-10-12T07:18:07;102350.0;;;7.0;80.0
60719;BME280;46567;51.660;5.824;2022-10-12T07:28:07;102350.0;;;7.4;81.0
60719;BME280;46567;51.660;5.824;2022-10-12T07:38:32;102330.0;;;7.8;81.5
60719;BME280;46567;51.660;5.824;2022-10-12T07:48:07;102320.0;;;8.1;81.5
60719;BME280;46567;51.660;5.824;2022-10-12T08:08:07;102330.0;;;8.8;81.0
60719;BME280;46567;51.660;5.824;2022-10-12T08:18:07;102340.0;;;9.0;81.0
60719;BME280;46567;51.660;5.824;2022-10-12T08:28:07;102350.0;;;9.3;81.0
60719;BME280;46567;51.660;5.824;2022-10-12T08:38:07;102330.0;;;9.5;80.5
60719;BME280;46567;51.660;5.824;2022-10-12T08:48:46;102340.0;;;9.8;80.5
60719;BME280;46567;51.660;5.824;2022-10-12T08:58:12;102330.0;;;10.2;80.5
60719;BME280;46567;51.660;5.824;2022-10-12T09:08:13;102320.0;;;10.6;80.5
60719;BME280;46567;51.660;5.824;2022-10-12T09:18:36;102340.0;;;10.9;80.0
60719;BME280;46567;51.660;5.824;2022-10-12T09:38:09;102330.0;;;11.8;79.5
60719;BME280;46567;51.660;5.824;2022-10-12T09:48:18;102340.0;;;12.3;79.0
60719;BME280;46567;51.660;5.824;2022-10-12T09:58:17;102330.0;;;12.8;78.0
60719;BME280;46567;51.660;5.824;2022-10-12T10:08:16;102310.0;;;13.1;77.5
60719;BME280;46567;51.660;5.824;2022-10-12T10:18:19;102300.0;;;13.3;76.5
60719;BME280;46567;51.660;5.824;2022-10-12T10:28:30;102300.0;;;13.8;77.0
60719;BME280;46567;51.660;5.824;2022-10-12T10:38:13;102290.0;;;14.2;75.5
60719;BME280;46567;51.660;5.824;2022-10-12T10:48:08;102280.0;;;14.7;74.0
60719;BME280;46567;51.660;5.824;2022-10-12T10:58:15;102280.0;;;15.1;72.0
60719;BME280;46567;51.660;5.824;2022-10-12T11:08:11;102270.0;;;15.4;70.5
60719;BME280;46567;51.660;5.824;2022-10-12T11:18:21;102260.0;;;15.8;69.5
60719;BME280;46567;51.660;5.824;2022-10-12T11:28:10;102250.0;;;16.1;67.0
60719;BME280;46567;51.660;5.824;2022-10-12T11:38:11;102230.0;;;16.2;66.5
60719;BME280;46567;51.660;5.824;2022-10-12T11:48:10;102210.0;;;16.3;66.0
60719;BME280;46567;51.660;5.824;2022-10-12T11:58:09;102190.0;;;16.6;65.0
60719;BME280;46567;51.660;5.824;2022-10-12T12:08:21;102190.0;;;16.6;63.0
60719;BME280;46567;51.660;5.824;2022-10-12T12:18:09;102160.0;;;16.6;61.5
60719;BME280;46567;51.660;5.824;2022-10-12T12:28:18;102180.0;;;16.7;62.0
60719;BME280;46567;51.660;5.824;2022-10-12T12:38:19;102170.0;;;16.9;62.5
60719;BME280;46567;51.660;5.824;2022-10-12T12:48:08;102160.0;;;17.0;61.5
60719;BME280;46567;51.660;5.824;2022-10-12T12:58:21;102130.0;;;17.1;62.0
60719;BME280;46567;51.660;5.824;2022-10-12T13:10:12;102140.0;;;17.1;62.0
60719;BME280;46567;51.660;5.824;2022-10-12T13:19:17;102130.0;;;17.1;62.0
60719;BME280;46567;51.660;5.824;2022-10-12T13:28:11;102140.0;;;17.2;61.5
60719;BME280;46567;51.660;5.824;2022-10-12T13:38:18;102110.0;;;17.2;61.5
60719;BME280;46567;51.660;5.824;2022-10-12T13:48:15;102110.0;;;17.2;61.0
60719;BME280;46567;51.660;5.824;2022-10-12T13:58:22;102110.0;;;17.5;61.0
60719;BME280;46567;51.660;5.824;2022-10-12T14:08:12;102100.0;;;17.8;60.5
60719;BME280;46567;51.660;5.824;2022-10-12T14:18:29;102100.0;;;17.8;60.5
60719;BME280;46567;51.660;5.824;2022-10-12T14:28:20;102080.0;;;17.6;60.0
60719;BME280;46567;51.660;5.824;2022-10-12T14:38:36;102080.0;;;17.4;60.0
60719;BME280;46567;51.660;5.824;2022-10-12T14:48:11;102070.0;;;17.3;60.5
60719;BME280;46567;51.660;5.824;2022-10-12T14:58:10;102060.0;;;17.3;60.5
60719;BME280;46567;51.660;5.824;2022-10-12T15:08:08;102040.0;;;17.3;60.5
60719;BME280;46567;51.660;5.824;2022-10-12T15:18:07;102040.0;;;17.1;60.5
60719;BME280;46567;51.660;5.824;2022-10-12T15:28:07;102020.0;;;16.9;61.0
60719;BME280;46567;51.660;5.824;2022-10-12T15:38:07;102000.0;;;16.8;61.0
60719;BME280;46567;51.660;5.824;2022-10-12T15:48:08;102020.0;;;16.7;62.0
60719;BME280;46567;51.660;5.824;2022-10-12T15:58:07;102030.0;;;16.6;62.5
60719;BME280;46567;51.660;5.824;2022-10-12T16:08:07;102020.0;;;16.5;62.5
60719;BME280;46567;51.660;5.824;2022-10-12T16:18:08;102010.0;;;16.3;63.0
60719;BME280;46567;51.660;5.824;2022-10-12T16:28:09;102030.0;;;16.1;63.0
60719;BME280;46567;51.660;5.824;2022-10-12T16:38:07;102040.0;;;15.9;63.0
60719;BME280;46567;51.660;5.824;2022-10-12T16:48:07;102030.0;;;15.6;63.5
60719;BME280;46567;51.660;5.824;2022-10-12T16:58:07;102020.0;;;15.3;64.0
60719;BME280;46567;51.660;5.824;2022-10-12T17:08:07;102030.0;;;15.1;64.0
60719;BME280;46567;51.660;5.824;2022-10-12T17:18:07;102020.0;;;14.8;65.0
60719;BME280;46567;51.660;5.824;2022-10-12T17:28:07;102040.0;;;14.5;65.5
60719;BME280;46567;51.660;5.824;2022-10-12T17:38:07;102020.0;;;14.3;66.0
60719;BME280;46567;51.660;5.824;2022-10-12T17:48:07;102020.0;;;13.9;66.5
60719;BME280;46567;51.660;5.824;2022-10-12T17:58:07;102010.0;;;13.6;67.5
60719;BME280;46567;51.660;5.824;2022-10-12T18:08:07;102020.0;;;13.3;68.0
60719;BME280;46567;51.660;5.824;2022-10-12T18:18:07;102020.0;;;13.0;69.0
60719;BME280;46567;51.660;5.824;2022-10-12T18:28:09;102020.0;;;12.8;69.5
60719;BME280;46567;51.660;5.824;2022-10-12T18:38:08;102020.0;;;12.7;70.0
60719;BME280;46567;51.660;5.824;2022-10-12T18:48:07;102010.0;;;12.5;70.0
60719;BME280;46567;51.660;5.824;2022-10-12T18:58:07;102020.0;;;12.3;70.0
60719;BME280;46567;51.660;5.824;2022-10-12T19:08:07;102010.0;;;12.0;70.5
60719;BME280;46567;51.660;5.824;2022-10-12T19:18:07;102010.0;;;11.8;71.5
60719;BME280;46567;51.660;5.824;2022-10-12T19:28:07;102010.0;;;11.7;72.5
60719;BME280;46567;51.660;5.824;2022-10-12T19:38:07;102000.0;;;11.6;73.0
60719;BME280;46567;51.660;5.824;2022-10-12T19:48:07;101990.0;;;11.5;73.0
60719;BME280;46567;51.660;5.824;2022-10-12T20:18:07;101990.0;;;11.2;73.5
60719;BME280;46567;51.660;5.824;2022-10-12T20:48:07;101980.0;;;10.9;74.0
60719;BME280;46567;51.660;5.824;2022-10-12T20:58:07;101970.0;;;10.9;74.5
60719;BME280;46567;51.660;5.824;2022-10-12T21:08:07;101960.0;;;11.0;74.5
60719;BME280;46567;51.660;5.824;2022-10-12T21:18:32;101970.0;;;11.1;75.0
60719;BME280;46567;51.660;5.824;2022-10-12T21:28:07;101960.0;;;11.2;75.5
60719;BME280;46567;51.660;5.824;2022-10-12T21:38:07;101950.0;;;11.2;75.5
60719;BME280;46567;51.660;5.824;2022-10-12T21:48:07;101950.0;;;11.2;76.0
60719;BME280;46567;51.660;5.824;2022-10-12T21:58:07;101940.0;;;11.2;76.0
60719;BME280;46567;51.660;5.824;2022-10-12T22:08:08;101940.0;;;11.2;76.0
60719;BME280;46567;51.660;5.824;2022-10-12T22:28:07;101930.0;;;11.2;76.5
60719;BME280;46567;51.660;5.824;2022-10-12T22:38:07;101920.0;;;11.2;76.5
60719;BME280;46567;51.660;5.824;2022-10-12T22:48:07;101920.0;;;11.2;76.5
60719;BME280;46567;51.660;5.824;2022-10-12T22:58:33;101910.0;;;11.2;76.5
60719;BME280;46567;51.660;5.824;2022-10-12T23:08:07;101910.0;;;11.3;76.5
60719;BME280;46567;51.660;5.824;2022-10-12T23:18:32;101900.0;;;11.4;77.0
60719;BME280;46567;51.660;5.824;2022-10-12T23:28:32;101900.0;;;11.6;77.5
60719;BME280;46567;51.660;5.824;2022-10-12T23:38:33;101890.0;;;11.8;77.5
60719;BME280;46567;51.660;5.824;2022-10-12T23:58:07;101880.0;;;12.0;77.5
